Fort Good Hope Airport
CYGH : rendu visible

Aérodrome :











RETROUVEZ-NOUS SUR...

 
LOGIN :

S'inscrire | Disclaimer

   EN    FR    IT 

 









Légende :    VFR   VFR Marginal   IFR   IFR Intensif   IFR Très Intensif
Visi : 
Plafond : 
>= 8 km
>= 3000ft
5 à 8 km
1000 à 3000 ft
1500m à 5 km
500 à 1000 ft
800 à 1500m
200 à 500 ft
< 800m
< 200 ft
Symboles :   Orages  Brouillard  Fortes neiges  Fortes précipitations  Vent > 20 kt






- Altitude de l'aérodrome : 268 ft
- Code IATA : YGH


CYGH - Fort Good Hope

DERNIER METAR :
  • 072300Z 28003KT 270V330 8SM -RA BKN008 OVC018 15/14 A2938 RMK SC5SC3 LAST STFD OBS/NEXT OBS 081300UTC SLP953 DENSITY ALT 1000FT

METARs EXPIRÉS :
  • 072252Z 31003KT 290V350 10SM -RA BKN008 OVC018 16/14 A2938 RMK SC5SC3 SLP953 DENSITY ALT 1100FT
  • 072200Z 31004KT 15SM -RA FEW006 BKN021 BKN032 OVC081 16/14 A2937 RMK SC2SC5SC1AC1 SC TR CIG RAG SLP950 DENSITY ALT 1100FT
  • 072139Z 33004KT 300V010 15SM -RA FEW006 BKN027 BKN080 16/14 A2937 RMK SC2SC4AC1 SLP950 DENSITY ALT 1100FT
  • 072100Z 34003KT 300V040 15SM FEW004 BKN014 BKN064 15/14 A2937 RMK SF2SC4SC1 SLP950 DENSITY ALT 1000FT
  • 072051Z 32003KT 15SM FEW003 BKN014 BKN055 BKN087 15/14 A2937 RMK SF1SC4SC1AC1 SLP950 DENSITY ALT 1000FT
  • 072036Z 33004KT 310V010 15SM FEW003 BKN010 BKN030 15/14 A2937 RMK SF1SC7SC1 SC TR SLP950 DENSITY ALT 1000FT
  • 072024Z VRB02KT 15SM BKN004 OVC020 15/14 A2937 RMK SC7SC1 SLP951 DENSITY ALT 1000FT

Prévision TAF périmée.
FIR CZEG / Amérique du Nord



MET'MAP, la Météo Aéronautique d'un coup d'oeil ! - Copyright ORBIFLY Décembre 2007 - Disclaimer

ORBIFLY MET'MAP TEAM :

Programmation & Développement : Alexandra Zaïnal
Sur une idée originale de : Baudouin d'Aumeries
Assistance à la programmation : Marc-Olivier Méhu
Soutien technique & logistique : Manuel Goepfert

Contact : metmap@orbifly.com




SOURCES & CREDITS :

   NOAA       Earth
Advisory